sensor_id;sensor_type;location;lat;lon;timestamp;pressure;altitude;pressure_sealevel;temperature;humidity
7433;BME280;32233;49.500;7.764;2024-03-25T00:00:12;97720.84;;;3.96;100.00
7433;BME280;32233;49.500;7.764;2024-03-25T00:02:39;97716.75;;;3.94;100.00
7433;BME280;32233;49.500;7.764;2024-03-25T00:05:06;97722.88;;;3.86;100.00
7433;BME280;32233;49.500;7.764;2024-03-25T00:07:38;97719.84;;;3.75;100.00
7433;BME280;32233;49.500;7.764;2024-03-25T00:10:04;97720.56;;;3.68;100.00
7433;BME280;32233;49.500;7.764;2024-03-25T00:12:32;97719.56;;;3.69;100.00
7433;BME280;32233;49.500;7.764;2024-03-25T00:14:58;97720.38;;;3.70;100.00
7433;BME280;32233;49.500;7.764;2024-03-25T00:17:23;97721.84;;;3.72;100.00
7433;BME280;32233;49.500;7.764;2024-03-25T00:19:49;97725.88;;;3.75;100.00
7433;BME280;32233;49.500;7.764;2024-03-25T00:22:18;97726.47;;;3.62;100.00
7433;BME280;32233;49.500;7.764;2024-03-25T00:24:45;97725.38;;;3.57;100.00
7433;BME280;32233;49.500;7.764;2024-03-25T00:27:12;97728.69;;;3.51;100.00
7433;BME280;32233;49.500;7.764;2024-03-25T00:29:38;97731.72;;;3.62;100.00
7433;BME280;32233;49.500;7.764;2024-03-25T00:32:04;97729.81;;;3.56;100.00
7433;BME280;32233;49.500;7.764;2024-03-25T00:34:30;97734.03;;;3.57;100.00
7433;BME280;32233;49.500;7.764;2024-03-25T00:36:55;97728.59;;;3.44;100.00
7433;BME280;32233;49.500;7.764;2024-03-25T00:39:21;97734.84;;;3.35;100.00
7433;BME280;32233;49.500;7.764;2024-03-25T00:41:47;97729.50;;;3.28;100.00
7433;BME280;32233;49.500;7.764;2024-03-25T00:44:13;97735.56;;;3.20;100.00
7433;BME280;32233;49.500;7.764;2024-03-25T00:46:38;97724.44;;;3.27;100.00
7433;BME280;32233;49.500;7.764;2024-03-25T00:49:05;97721.13;;;3.33;100.00
7433;BME280;32233;49.500;7.764;2024-03-25T00:51:31;97721.19;;;3.25;100.00
7433;BME280;32233;49.500;7.764;2024-03-25T00:53:56;97721.38;;;3.23;100.00
7433;BME280;32233;49.500;7.764;2024-03-25T00:56:22;97727.44;;;3.15;100.00
7433;BME280;32233;49.500;7.764;2024-03-25T00:58:48;97718.31;;;3.11;100.00
7433;BME280;32233;49.500;7.764;2024-03-25T01:01:13;97720.81;;;3.05;100.00
7433;BME280;32233;49.500;7.764;2024-03-25T01:03:39;97723.94;;;3.00;100.00
7433;BME280;32233;49.500;7.764;2024-03-25T01:06:05;97724.81;;;2.84;100.00
7433;BME280;32233;49.500;7.764;2024-03-25T01:08:30;97715.56;;;2.73;100.00
7433;BME280;32233;49.500;7.764;2024-03-25T01:10:56;97722.13;;;2.69;100.00
7433;BME280;32233;49.500;7.764;2024-03-25T01:13:21;97720.84;;;2.57;100.00
7433;BME280;32233;49.500;7.764;2024-03-25T01:15:47;97728.72;;;2.41;100.00
7433;BME280;32233;49.500;7.764;2024-03-25T01:18:13;97719.91;;;2.42;100.00
7433;BME280;32233;49.500;7.764;2024-03-25T01:20:38;97720.03;;;2.48;100.00
7433;BME280;32233;49.500;7.764;2024-03-25T01:23:04;97716.59;;;2.56;100.00
7433;BME280;32233;49.500;7.764;2024-03-25T01:25:30;97717.09;;;2.52;100.00
7433;BME280;32233;49.500;7.764;2024-03-25T01:27:56;97715.31;;;2.44;100.00
7433;BME280;32233;49.500;7.764;2024-03-25T01:30:22;97717.78;;;2.45;100.00
7433;BME280;32233;49.500;7.764;2024-03-25T01:32:47;97722.53;;;2.42;100.00
7433;BME280;32233;49.500;7.764;2024-03-25T01:35:14;97723.97;;;2.36;100.00
7433;BME280;32233;49.500;7.764;2024-03-25T01:37:41;97715.38;;;2.19;100.00
7433;BME280;32233;49.500;7.764;2024-03-25T01:40:07;97717.22;;;2.03;100.00
7433;BME280;32233;49.500;7.764;2024-03-25T01:42:35;97713.00;;;1.93;100.00
7433;BME280;32233;49.500;7.764;2024-03-25T01:45:01;97710.06;;;1.80;100.00
7433;BME280;32233;49.500;7.764;2024-03-25T01:47:29;97698.34;;;1.76;100.00
7433;BME280;32233;49.500;7.764;2024-03-25T01:49:57;97703.88;;;1.65;100.00
7433;BME280;32233;49.500;7.764;2024-03-25T01:52:23;97701.28;;;1.57;100.00
7433;BME280;32233;49.500;7.764;2024-03-25T01:54:50;97697.38;;;1.53;100.00
7433;BME280;32233;49.500;7.764;2024-03-25T01:57:16;97698.50;;;1.50;100.00
7433;BME280;32233;49.500;7.764;2024-03-25T01:59:42;97699.47;;;1.57;100.00
7433;BME280;32233;49.500;7.764;2024-03-25T02:02:08;97701.44;;;1.55;100.00
7433;BME280;32233;49.500;7.764;2024-03-25T02:04:37;97698.66;;;1.48;100.00
7433;BME280;32233;49.500;7.764;2024-03-25T02:07:05;97694.09;;;1.42;100.00
7433;BME280;32233;49.500;7.764;2024-03-25T02:09:33;97703.06;;;1.32;100.00
7433;BME280;32233;49.500;7.764;2024-03-25T02:12:00;97702.53;;;1.20;100.00
7433;BME280;32233;49.500;7.764;2024-03-25T02:14:26;97699.91;;;1.12;100.00
7433;BME280;32233;49.500;7.764;2024-03-25T02:16:52;97700.09;;;1.10;100.00
7433;BME280;32233;49.500;7.764;2024-03-25T02:19:18;97694.69;;;1.04;100.00
7433;BME280;32233;49.500;7.764;2024-03-25T02:21:44;97696.66;;;1.10;100.00
7433;BME280;32233;49.500;7.764;2024-03-25T02:24:11;97691.91;;;1.05;100.00
7433;BME280;32233;49.500;7.764;2024-03-25T02:26:37;97687.88;;;1.11;100.00
7433;BME280;32233;49.500;7.764;2024-03-25T02:29:03;97685.91;;;1.05;100.00
7433;BME280;32233;49.500;7.764;2024-03-25T02:31:28;97682.81;;;1.01;100.00
7433;BME280;32233;49.500;7.764;2024-03-25T02:33:54;97683.16;;;0.98;100.00
7433;BME280;32233;49.500;7.764;2024-03-25T02:36:19;97681.16;;;0.92;100.00
7433;BME280;32233;49.500;7.764;2024-03-25T02:38:45;97674.31;;;0.83;100.00
7433;BME280;32233;49.500;7.764;2024-03-25T02:41:11;97670.53;;;0.77;100.00
7433;BME280;32233;49.500;7.764;2024-03-25T02:43:36;97670.53;;;0.77;100.00
7433;BME280;32233;49.500;7.764;2024-03-25T02:46:02;97671.53;;;0.76;100.00
7433;BME280;32233;49.500;7.764;2024-03-25T02:48:28;97664.88;;;0.82;100.00
7433;BME280;32233;49.500;7.764;2024-03-25T02:50:53;97671.88;;;0.89;100.00
7433;BME280;32233;49.500;7.764;2024-03-25T02:53:19;97667.34;;;0.91;100.00
7433;BME280;32233;49.500;7.764;2024-03-25T02:55:44;97663.91;;;0.83;100.00
7433;BME280;32233;49.500;7.764;2024-03-25T02:58:10;97663.69;;;0.68;100.00
7433;BME280;32233;49.500;7.764;2024-03-25T03:00:35;97657.72;;;0.76;100.00
7433;BME280;32233;49.500;7.764;2024-03-25T03:03:01;97661.28;;;0.74;100.00
7433;BME280;32233;49.500;7.764;2024-03-25T03:05:26;97661.41;;;0.65;100.00
7433;BME280;32233;49.500;7.764;2024-03-25T03:07:52;97665.28;;;0.61;100.00
7433;BME280;32233;49.500;7.764;2024-03-25T03:10:18;97660.88;;;0.45;100.00
7433;BME280;32233;49.500;7.764;2024-03-25T03:12:43;97662.00;;;0.51;100.00
7433;BME280;32233;49.500;7.764;2024-03-25T03:15:09;97665.22;;;0.44;100.00
7433;BME280;32233;49.500;7.764;2024-03-25T03:17:34;97664.53;;;0.34;100.00
7433;BME280;32233;49.500;7.764;2024-03-25T03:20:00;97673.31;;;0.33;100.00
7433;BME280;32233;49.500;7.764;2024-03-25T03:22:26;97669.97;;;0.49;100.00
7433;BME280;32233;49.500;7.764;2024-03-25T03:24:51;97668.38;;;0.56;100.00
7433;BME280;32233;49.500;7.764;2024-03-25T03:27:17;97675.22;;;0.57;100.00
7433;BME280;32233;49.500;7.764;2024-03-25T03:29:43;97669.34;;;0.55;100.00
7433;BME280;32233;49.500;7.764;2024-03-25T03:32:08;97671.44;;;0.52;100.00
7433;BME280;32233;49.500;7.764;2024-03-25T03:34:34;97667.22;;;0.51;100.00
7433;BME280;32233;49.500;7.764;2024-03-25T03:36:59;97666.38;;;0.42;100.00
7433;BME280;32233;49.500;7.764;2024-03-25T03:39:25;97661.44;;;0.31;100.00
7433;BME280;32233;49.500;7.764;2024-03-25T03:41:50;97669.38;;;0.21;100.00
7433;BME280;32233;49.500;7.764;2024-03-25T03:44:16;97671.41;;;0.09;100.00
7433;BME280;32233;49.500;7.764;2024-03-25T03:46:41;97673.44;;;-0.03;100.00
7433;BME280;32233;49.500;7.764;2024-03-25T03:49:07;97669.13;;;-0.20;100.00
7433;BME280;32233;49.500;7.764;2024-03-25T03:51:33;97667.47;;;-0.21;100.00
7433;BME280;32233;49.500;7.764;2024-03-25T03:53:58;97671.97;;;-0.31;100.00
7433;BME280;32233;49.500;7.764;2024-03-25T03:56:24;97670.78;;;-0.37;100.00
7433;BME280;32233;49.500;7.764;2024-03-25T03:58:49;97664.34;;;-0.51;100.00
7433;BME280;32233;49.500;7.764;2024-03-25T04:01:18;97675.53;;;-0.50;100.00
7433;BME280;32233;49.500;7.764;2024-03-25T04:03:44;97671.16;;;-0.50;100.00
7433;BME280;32233;49.500;7.764;2024-03-25T04:06:11;97670.50;;;-0.52;100.00
7433;BME280;32233;49.500;7.764;2024-03-25T04:08:40;97670.66;;;-0.53;100.00
7433;BME280;32233;49.500;7.764;2024-03-25T04:11:07;97671.03;;;-0.48;100.00
7433;BME280;32233;49.500;7.764;2024-03-25T04:13:33;97669.19;;;-0.56;100.00
7433;BME280;32233;49.500;7.764;2024-03-25T04:16:04;97671.09;;;-0.58;100.00
7433;BME280;32233;49.500;7.764;2024-03-25T04:18:31;97671.94;;;-0.57;100.00
7433;BME280;32233;49.500;7.764;2024-03-25T04:20:57;97676.97;;;-0.56;100.00
7433;BME280;32233;49.500;7.764;2024-03-25T04:23:22;97669.19;;;-0.56;100.00
7433;BME280;32233;49.500;7.764;2024-03-25T04:25:49;97669.63;;;-0.60;100.00
7433;BME280;32233;49.500;7.764;2024-03-25T04:28:14;97674.31;;;-0.64;100.00
7433;BME280;32233;49.500;7.764;2024-03-25T04:30:40;97674.47;;;-0.65;100.00
7433;BME280;32233;49.500;7.764;2024-03-25T04:33:06;97672.28;;;-0.70;100.00
7433;BME280;32233;49.500;7.764;2024-03-25T04:35:33;97666.44;;;-0.72;100.00
7433;BME280;32233;49.500;7.764;2024-03-25T04:37:59;97669.63;;;-0.78;100.00
7433;BME280;32233;49.500;7.764;2024-03-25T04:40:25;97672.22;;;-0.78;100.00
7433;BME280;32233;49.500;7.764;2024-03-25T04:42:50;97674.31;;;-0.64;100.00
7433;BME280;32233;49.500;7.764;2024-03-25T04:45:16;97681.34;;;-0.74;100.00
7433;BME280;32233;49.500;7.764;2024-03-25T04:47:41;97670.81;;;-0.72;100.00
7433;BME280;32233;49.500;7.764;2024-03-25T04:50:07;97678.75;;;-0.74;100.00
7433;BME280;32233;49.500;7.764;2024-03-25T04:52:33;97672.88;;;-0.58;100.00
7433;BME280;32233;49.500;7.764;2024-03-25T04:54:59;97677.13;;;-0.57;100.00
7433;BME280;32233;49.500;7.764;2024-03-25T04:57:24;97680.22;;;-0.54;100.00
7433;BME280;32233;49.500;7.764;2024-03-25T04:59:50;97682.38;;;-0.67;100.00
7433;BME280;32233;49.500;7.764;2024-03-25T05:02:15;97687.66;;;-0.77;100.00
7433;BME280;32233;49.500;7.764;2024-03-25T05:04:41;97687.88;;;-0.88;100.00
7433;BME280;32233;49.500;7.764;2024-03-25T05:07:07;97689.03;;;-0.82;100.00
7433;BME280;32233;49.500;7.764;2024-03-25T05:09:32;97689.28;;;-0.93;100.00
7433;BME280;32233;49.500;7.764;2024-03-25T05:11:58;97681.34;;;-0.92;100.00
7433;BME280;32233;49.500;7.764;2024-03-25T05:14:24;97687.22;;;-0.90;100.00
7433;BME280;32233;49.500;7.764;2024-03-25T05:16:49;97686.16;;;-0.97;100.00
7433;BME280;32233;49.500;7.764;2024-03-25T05:19:17;97685.03;;;-0.94;100.00
7433;BME280;32233;49.500;7.764;2024-03-25T05:21:43;97685.34;;;-0.97;100.00
7433;BME280;32233;49.500;7.764;2024-03-25T05:24:09;97678.38;;;-0.79;100.00
7433;BME280;32233;49.500;7.764;2024-03-25T05:26:35;97690.63;;;-0.71;100.00
7433;BME280;32233;49.500;7.764;2024-03-25T05:29:00;97680.75;;;-0.68;100.00
7433;BME280;32233;49.500;7.764;2024-03-25T05:31:26;97680.75;;;-0.68;100.00
7433;BME280;32233;49.500;7.764;2024-03-25T05:33:51;97675.81;;;-0.61;100.00
7433;BME280;32233;49.500;7.764;2024-03-25T05:36:17;97677.94;;;-0.57;100.00
7433;BME280;32233;49.500;7.764;2024-03-25T05:38:43;97683.78;;;-0.55;100.00
7433;BME280;32233;49.500;7.764;2024-03-25T05:41:09;97678.41;;;-0.61;100.00
7433;BME280;32233;49.500;7.764;2024-03-25T05:43:35;97684.84;;;-0.65;100.00
7433;BME280;32233;49.500;7.764;2024-03-25T05:46:01;97678.13;;;-0.50;100.00
7433;BME280;32233;49.500;7.764;2024-03-25T05:48:27;97684.06;;;-0.40;100.00
7433;BME280;32233;49.500;7.764;2024-03-25T05:51:11;97689.56;;;-0.43;100.00
7433;BME280;32233;49.500;7.764;2024-03-25T05:53:37;97690.38;;;-0.42;100.00
7433;BME280;32233;49.500;7.764;2024-03-25T05:56:03;97686.31;;;-0.45;100.00
7433;BME280;32233;49.500;7.764;2024-03-25T05:58:29;97697.78;;;-0.30;100.00
7433;BME280;32233;49.500;7.764;2024-03-25T06:00:55;97697.38;;;-0.17;100.00
7433;BME280;32233;49.500;7.764;2024-03-25T06:03:21;97700.88;;;-0.08;100.00
7433;BME280;32233;49.500;7.764;2024-03-25T06:05:47;97704.69;;;0.06;100.00
7433;BME280;32233;49.500;7.764;2024-03-25T06:08:13;97712.81;;;0.11;100.00
7433;BME280;32233;49.500;7.764;2024-03-25T06:10:51;97707.06;;;0.25;100.00
7433;BME280;32233;49.500;7.764;2024-03-25T06:13:17;97706.34;;;0.41;100.00
7433;BME280;32233;49.500;7.764;2024-03-25T06:15:43;97708.53;;;0.54;100.00
7433;BME280;32233;49.500;7.764;2024-03-25T06:18:09;97709.41;;;0.70;100.00
7433;BME280;32233;49.500;7.764;2024-03-25T06:20:34;97707.94;;;0.76;100.00
7433;BME280;32233;49.500;7.764;2024-03-25T06:23:00;97719.66;;;0.80;100.00
7433;BME280;32233;49.500;7.764;2024-03-25T06:25:27;97722.00;;;0.99;100.00
7433;BME280;32233;49.500;7.764;2024-03-25T06:27:54;97722.03;;;1.08;100.00
7433;BME280;32233;49.500;7.764;2024-03-25T06:30:19;97731.06;;;0.79;100.00
7433;BME280;32233;49.500;7.764;2024-03-25T06:33:04;97732.34;;;0.75;100.00
7433;BME280;32233;49.500;7.764;2024-03-25T06:35:48;97726.13;;;0.68;100.00
7433;BME280;32233;49.500;7.764;2024-03-25T06:38:13;97730.38;;;0.77;100.00
7433;BME280;32233;49.500;7.764;2024-03-25T06:40:39;97739.13;;;1.02;100.00
7433;BME280;32233;49.500;7.764;2024-03-25T06:43:05;97747.91;;;1.17;100.00
7433;BME280;32233;49.500;7.764;2024-03-25T06:45:31;97746.81;;;1.28;100.00
7433;BME280;32233;49.500;7.764;2024-03-25T06:47:56;97751.56;;;1.41;100.00
7433;BME280;32233;49.500;7.764;2024-03-25T06:50:23;97752.25;;;1.92;100.00
7433;BME280;32233;49.500;7.764;2024-03-25T06:52:49;97743.94;;;2.13;100.00
7433;BME280;32233;49.500;7.764;2024-03-25T06:55:15;97755.28;;;2.28;100.00
7433;BME280;32233;49.500;7.764;2024-03-25T06:57:41;97753.84;;;2.34;100.00
7433;BME280;32233;49.500;7.764;2024-03-25T07:00:06;97743.16;;;2.60;100.00
7433;BME280;32233;49.500;7.764;2024-03-25T07:02:39;97736.84;;;2.93;100.00
7433;BME280;32233;49.500;7.764;2024-03-25T07:05:05;97742.97;;;3.09;100.00
7433;BME280;32233;49.500;7.764;2024-03-25T07:07:30;97744.22;;;2.90;100.00
7433;BME280;32233;49.500;7.764;2024-03-25T07:09:57;97744.09;;;2.75;100.00
7433;BME280;32233;49.500;7.764;2024-03-25T07:12:23;97751.03;;;2.99;100.00
7433;BME280;32233;49.500;7.764;2024-03-25T07:14:48;97739.38;;;3.10;100.00
7433;BME280;32233;49.500;7.764;2024-03-25T07:17:15;97742.03;;;3.02;100.00
7433;BME280;32233;49.500;7.764;2024-03-25T07:19:40;97742.41;;;3.21;100.00
7433;BME280;32233;49.500;7.764;2024-03-25T07:22:06;97739.31;;;3.49;100.00
7433;BME280;32233;49.500;7.764;2024-03-25T07:24:32;97743.16;;;3.61;100.00
7433;BME280;32233;49.500;7.764;2024-03-25T07:26:58;97749.31;;;3.68;100.00
7433;BME280;32233;49.500;7.764;2024-03-25T07:29:23;97743.75;;;4.09;100.00
7433;BME280;32233;49.500;7.764;2024-03-25T07:31:49;97759.47;;;3.86;100.00
7433;BME280;32233;49.500;7.764;2024-03-25T07:34:18;97752.84;;;3.98;100.00
7433;BME280;32233;49.500;7.764;2024-03-25T07:36:45;97758.06;;;3.98;100.00
7433;BME280;32233;49.500;7.764;2024-03-25T07:39:11;97757.66;;;4.10;100.00
7433;BME280;32233;49.500;7.764;2024-03-25T07:41:37;97747.56;;;4.21;100.00
7433;BME280;32233;49.500;7.764;2024-03-25T07:44:03;97746.88;;;4.42;100.00
7433;BME280;32233;49.500;7.764;2024-03-25T07:46:30;97748.56;;;4.20;100.00
7433;BME280;32233;49.500;7.764;2024-03-25T07:48:56;97745.25;;;4.56;100.00
7433;BME280;32233;49.500;7.764;2024-03-25T07:51:21;97734.25;;;4.46;100.00
7433;BME280;32233;49.500;7.764;2024-03-25T07:53:47;97740.81;;;4.57;100.00
7433;BME280;32233;49.500;7.764;2024-03-25T07:56:14;97742.09;;;4.46;100.00
7433;BME280;32233;49.500;7.764;2024-03-25T07:58:41;97749.50;;;4.42;100.00
7433;BME280;32233;49.500;7.764;2024-03-25T08:01:06;97746.63;;;4.67;100.00
7433;BME280;32233;49.500;7.764;2024-03-25T08:03:32;97750.41;;;4.64;100.00
7433;BME280;32233;49.500;7.764;2024-03-25T08:05:57;97754.19;;;4.91;100.00
7433;BME280;32233;49.500;7.764;2024-03-25T08:08:23;97753.75;;;4.88;100.00
7433;BME280;32233;49.500;7.764;2024-03-25T08:10:49;97759.72;;;5.33;100.00
7433;BME280;32233;49.500;7.764;2024-03-25T08:13:14;97754.34;;;6.83;100.00
7433;BME280;32233;49.500;7.764;2024-03-25T08:15:41;97753.34;;;6.84;100.00
7433;BME280;32233;49.500;7.764;2024-03-25T08:18:07;97756.81;;;6.56;100.00
7433;BME280;32233;49.500;7.764;2024-03-25T08:20:32;97759.09;;;6.10;100.00
7433;BME280;32233;49.500;7.764;2024-03-25T08:22:58;97752.16;;;6.93;100.00
7433;BME280;32233;49.500;7.764;2024-03-25T08:25:23;97757.56;;;6.78;100.00
7433;BME280;32233;49.500;7.764;2024-03-25T08:27:49;97753.91;;;7.20;100.00
7433;BME280;32233;49.500;7.764;2024-03-25T08:30:14;97754.28;;;7.11;100.00
7433;BME280;32233;49.500;7.764;2024-03-25T08:32:40;97750.25;;;8.42;100.00
7433;BME280;32233;49.500;7.764;2024-03-25T08:35:06;97732.91;;;10.58;100.00
7433;BME280;32233;49.500;7.764;2024-03-25T08:37:32;97737.56;;;11.48;100.00
7433;BME280;32233;49.500;7.764;2024-03-25T08:39:58;97736.56;;;10.94;100.00
7433;BME280;32233;49.500;7.764;2024-03-25T08:42:23;97735.56;;;10.95;100.00
7433;BME280;32233;49.500;7.764;2024-03-25T08:44:49;97736.81;;;10.74;100.00
7433;BME280;32233;49.500;7.764;2024-03-25T08:47:14;97734.53;;;10.96;100.00
7433;BME280;32233;49.500;7.764;2024-03-25T08:49:40;97730.88;;;11.45;100.00
7433;BME280;32233;49.500;7.764;2024-03-25T08:52:05;97715.97;;;11.93;100.00
7433;BME280;32233;49.500;7.764;2024-03-25T08:54:31;97718.34;;;11.52;100.00
7433;BME280;32233;49.500;7.764;2024-03-25T08:56:57;97724.75;;;10.96;100.00
7433;BME280;32233;49.500;7.764;2024-03-25T08:59:22;97717.38;;;10.18;100.00
7433;BME280;32233;49.500;7.764;2024-03-25T09:01:48;97705.63;;;11.31;100.00
7433;BME280;32233;49.500;7.764;2024-03-25T09:04:13;97701.34;;;12.49;100.00
7433;BME280;32233;49.500;7.764;2024-03-25T09:06:39;97691.56;;;11.60;100.00
7433;BME280;32233;49.500;7.764;2024-03-25T09:09:05;97686.28;;;12.37;100.00
7433;BME280;32233;49.500;7.764;2024-03-25T09:11:49;97681.28;;;12.76;100.00
7433;BME280;32233;49.500;7.764;2024-03-25T09:14:15;97676.31;;;13.20;100.00
7433;BME280;32233;49.500;7.764;2024-03-25T09:16:40;97674.41;;;12.52;100.00
7433;BME280;32233;49.500;7.764;2024-03-25T09:19:06;97668.66;;;10.94;100.00
7433;BME280;32233;49.500;7.764;2024-03-25T09:21:32;97659.09;;;11.53;100.00
7433;BME280;32233;49.500;7.764;2024-03-25T09:23:57;97659.94;;;11.65;100.00
7433;BME280;32233;49.500;7.764;2024-03-25T09:26:23;97658.53;;;11.63;100.00
7433;BME280;32233;49.500;7.764;2024-03-25T09:28:49;97654.81;;;11.94;100.00
7433;BME280;32233;49.500;7.764;2024-03-25T09:31:15;97656.31;;;11.90;100.00
7433;BME280;32233;49.500;7.764;2024-03-25T09:33:41;97655.97;;;11.45;100.00
7433;BME280;32233;49.500;7.764;2024-03-25T09:36:09;97649.72;;;11.27;100.00
7433;BME280;32233;49.500;7.764;2024-03-25T09:38:36;97639.97;;;11.09;100.00
7433;BME280;32233;49.500;7.764;2024-03-25T09:41:02;97635.97;;;11.49;100.00
7433;BME280;32233;49.500;7.764;2024-03-25T09:43:33;97631.00;;;11.40;100.00
7433;BME280;32233;49.500;7.764;2024-03-25T09:46:02;97619.97;;;11.44;100.00
7433;BME280;32233;49.500;7.764;2024-03-25T09:48:30;97613.16;;;11.06;100.00
7433;BME280;32233;49.500;7.764;2024-03-25T09:50:55;97609.66;;;11.24;100.00
7433;BME280;32233;49.500;7.764;2024-03-25T09:53:22;97605.91;;;11.55;100.00
7433;BME280;32233;49.500;7.764;2024-03-25T09:55:47;97596.97;;;12.50;100.00
7433;BME280;32233;49.500;7.764;2024-03-25T09:58:15;97592.97;;;14.00;100.00
7433;BME280;32233;49.500;7.764;2024-03-25T10:00:42;97582.78;;;15.24;93.19
7433;BME280;32233;49.500;7.764;2024-03-25T10:03:08;97584.03;;;15.16;90.22
7433;BME280;32233;49.500;7.764;2024-03-25T10:05:34;97588.69;;;15.95;69.83
7433;BME280;32233;49.500;7.764;2024-03-25T10:08:00;97576.38;;;16.31;51.71
7433;BME280;32233;49.500;7.764;2024-03-25T10:10:26;97581.06;;;16.09;51.99
7433;BME280;32233;49.500;7.764;2024-03-25T10:12:54;97577.50;;;17.54;50.24
7433;BME280;32233;49.500;7.764;2024-03-25T10:15:20;97574.75;;;16.78;51.16
7433;BME280;32233;49.500;7.764;2024-03-25T10:17:49;97567.25;;;16.22;57.38
7433;BME280;32233;49.500;7.764;2024-03-25T10:20:15;97562.47;;;15.18;59.73
7433;BME280;32233;49.500;7.764;2024-03-25T10:22:44;97565.66;;;15.15;56.54
7433;BME280;32233;49.500;7.764;2024-03-25T10:25:28;97561.91;;;14.45;60.32
7433;BME280;32233;49.500;7.764;2024-03-25T10:27:59;97553.41;;;16.88;48.91
7433;BME280;32233;49.500;7.764;2024-03-25T10:30:26;97542.75;;;17.08;54.70
7433;BME280;32233;49.500;7.764;2024-03-25T10:33:03;97535.69;;;16.04;48.07
7433;BME280;32233;49.500;7.764;2024-03-25T10:35:31;97534.97;;;15.71;64.23
7433;BME280;32233;49.500;7.764;2024-03-25T10:38:02;97529.34;;;15.35;59.76
7433;BME280;32233;49.500;7.764;2024-03-25T10:40:30;97530.59;;;15.23;66.39
7433;BME280;32233;49.500;7.764;2024-03-25T10:43:04;97519.47;;;14.99;64.77
7433;BME280;32233;49.500;7.764;2024-03-25T10:45:35;97521.53;;;15.98;50.71
7433;BME280;32233;49.500;7.764;2024-03-25T10:48:03;97512.19;;;16.58;48.80
7433;BME280;32233;49.500;7.764;2024-03-25T10:50:34;97508.63;;;16.27;52.01
7433;BME280;32233;49.500;7.764;2024-03-25T10:53:02;97502.16;;;16.96;47.87
7433;BME280;32233;49.500;7.764;2024-03-25T10:55:28;97497.28;;;16.63;55.16
7433;BME280;32233;49.500;7.764;2024-03-25T10:57:55;97493.91;;;17.08;47.60
7433;BME280;32233;49.500;7.764;2024-03-25T11:00:22;97486.69;;;17.44;47.22
7433;BME280;32233;49.500;7.764;2024-03-25T11:02:48;97493.47;;;16.48;48.93
7433;BME280;32233;49.500;7.764;2024-03-25T11:05:14;97487.84;;;16.29;47.07
7433;BME280;32233;49.500;7.764;2024-03-25T11:07:40;97475.75;;;16.95;44.91
7433;BME280;32233;49.500;7.764;2024-03-25T11:10:09;97476.50;;;16.75;39.04
7433;BME280;32233;49.500;7.764;2024-03-25T11:12:36;97468.72;;;16.58;37.18
7433;BME280;32233;49.500;7.764;2024-03-25T11:15:03;97470.38;;;17.10;37.12
7433;BME280;32233;49.500;7.764;2024-03-25T11:17:30;97462.75;;;18.14;33.15
7433;BME280;32233;49.500;7.764;2024-03-25T11:20:08;97462.13;;;17.22;37.57
7433;BME280;32233;49.500;7.764;2024-03-25T11:22:35;97457.50;;;16.51;37.64
7433;BME280;32233;49.500;7.764;2024-03-25T11:25:06;97451.16;;;17.18;35.24
7433;BME280;32233;49.500;7.764;2024-03-25T11:27:36;97453.00;;;17.64;34.59
7433;BME280;32233;49.500;7.764;2024-03-25T11:30:03;97444.81;;;16.05;36.77
7433;BME280;32233;49.500;7.764;2024-03-25T11:32:43;97450.16;;;13.91;48.93
7433;BME280;32233;49.500;7.764;2024-03-25T11:35:09;97449.16;;;13.19;50.42
7433;BME280;32233;49.500;7.764;2024-03-25T11:37:42;97448.44;;;12.90;52.96
7433;BME280;32233;49.500;7.764;2024-03-25T11:40:11;97450.78;;;12.01;61.74
7433;BME280;32233;49.500;7.764;2024-03-25T11:42:40;97444.75;;;12.17;63.52
7433;BME280;32233;49.500;7.764;2024-03-25T11:45:16;97448.69;;;11.79;60.29
7433;BME280;32233;49.500;7.764;2024-03-25T11:47:43;97430.31;;;11.96;52.55
7433;BME280;32233;49.500;7.764;2024-03-25T11:50:14;97442.06;;;11.65;67.79
7433;BME280;32233;49.500;7.764;2024-03-25T11:52:40;97427.34;;;12.21;65.35
7433;BME280;32233;49.500;7.764;2024-03-25T11:55:06;97419.56;;;12.94;61.33
7433;BME280;32233;49.500;7.764;2024-03-25T11:57:37;97405.25;;;15.77;49.69
7433;BME280;32233;49.500;7.764;2024-03-25T12:00:07;97400.88;;;15.55;45.39
7433;BME280;32233;49.500;7.764;2024-03-25T12:02:44;97394.19;;;14.46;46.75
7433;BME280;32233;49.500;7.764;2024-03-25T12:05:12;97401.91;;;12.82;61.73
7433;BME280;32233;49.500;7.764;2024-03-25T12:07:38;97394.97;;;12.98;70.91
7433;BME280;32233;49.500;7.764;2024-03-25T12:10:04;97399.94;;;12.61;60.84
7433;BME280;32233;49.500;7.764;2024-03-25T12:12:48;97399.00;;;12.67;72.86
7433;BME280;32233;49.500;7.764;2024-03-25T12:15:19;97387.91;;;12.70;56.98
7433;BME280;32233;49.500;7.764;2024-03-25T12:17:46;97381.22;;;12.68;73.95
7433;BME280;32233;49.500;7.764;2024-03-25T12:20:11;97380.66;;;11.92;68.95
7433;BME280;32233;49.500;7.764;2024-03-25T12:22:41;97366.25;;;11.99;75.07
7433;BME280;32233;49.500;7.764;2024-03-25T12:25:07;97374.69;;;11.96;68.96
7433;BME280;32233;49.500;7.764;2024-03-25T12:27:35;97363.81;;;11.57;77.74
7433;BME280;32233;49.500;7.764;2024-03-25T12:30:04;97360.31;;;13.05;74.80
7433;BME280;32233;49.500;7.764;2024-03-25T12:34:58;97336.41;;;15.53;40.17
7433;BME280;32233;49.500;7.764;2024-03-25T12:37:26;97321.75;;;14.98;46.20
7433;BME280;32233;49.500;7.764;2024-03-25T12:39:51;97322.78;;;16.64;40.53
7433;BME280;32233;49.500;7.764;2024-03-25T12:42:17;97303.44;;;20.34;34.77
7433;BME280;32233;49.500;7.764;2024-03-25T12:44:43;97288.44;;;19.95;33.24
7433;BME280;32233;49.500;7.764;2024-03-25T12:47:09;97280.28;;;21.31;27.90
7433;BME280;32233;49.500;7.764;2024-03-25T12:49:34;97271.31;;;22.58;28.09
7433;BME280;32233;49.500;7.764;2024-03-25T12:52:00;97268.78;;;20.98;27.66
7433;BME280;32233;49.500;7.764;2024-03-25T12:54:26;97261.25;;;21.55;29.29
7433;BME280;32233;49.500;7.764;2024-03-25T12:56:51;97253.66;;;21.85;28.42
7433;BME280;32233;49.500;7.764;2024-03-25T12:59:17;97245.53;;;21.48;29.63
7433;BME280;32233;49.500;7.764;2024-03-25T13:01:42;97242.84;;;19.95;31.06
7433;BME280;32233;49.500;7.764;2024-03-25T13:04:08;97243.50;;;19.68;29.22
7433;BME280;32233;49.500;7.764;2024-03-25T13:06:33;97234.47;;;20.16;29.42